Time;durP1;ratioP1;P1;durP2;ratioP2;P2;SDS_P1;SDS_P2;PMS_P1;PMS_P2;Temp;Humidity;BMP_temperature;BMP_pressure;BME280_temperature;BME280_humidity;BME280_pressure;Samples;Min_cycle;Max_cycle;Signal;HPM_P1;HPM_P2
2022/06/10 00:00:50;;;;;;;5.83;3.23;;;;;;;;;;4990583;28;20208;-75
2022/06/10 00:03:17;;;;;;;4.47;3.57;;;;;;;;;;4992167;28;20207;-75
2022/06/10 00:05:45;;;;;;;5.03;3.27;;;;;;;;;;4989193;28;20188;-74
2022/06/10 00:08:12;;;;;;;5.03;3.53;;;;;;;;;;4993460;28;20264;-74
2022/06/10 00:10:39;;;;;;;3.83;3.30;;;;;;;;;;4995447;28;20607;-75
2022/06/10 00:13:05;;;;;;;5.17;3.63;;;;;;;;;;4993893;28;20183;-77
2022/06/10 00:15:32;;;;;;;5.97;3.63;;;;;;;;;;4994055;28;20194;-74
2022/06/10 00:17:58;;;;;;;5.40;3.37;;;;;;;;;;5008163;28;20293;-74
2022/06/10 00:20:27;;;;;;;5.53;3.90;;;;;;;;;;4994188;28;20203;-74
2022/06/10 00:22:53;;;;;;;4.57;3.30;;;;;;;;;;4996011;28;20303;-72
2022/06/10 00:25:20;;;;;;;5.53;3.47;;;;;;;;;;4993081;28;20188;-72
2022/06/10 00:27:47;;;;;;;6.37;3.57;;;;;;;;;;4991702;28;20180;-74
2022/06/10 00:30:15;;;;;;;5.43;3.60;;;;;;;;;;4992446;28;20204;-75
2022/06/10 00:32:41;;;;;;;6.77;3.53;;;;;;;;;;4993554;28;20188;-74
2022/06/10 00:35:07;;;;;;;7.70;3.80;;;;;;;;;;5003239;28;20188;-73
2022/06/10 00:37:34;;;;;;;3.57;3.10;;;;;;;;;;5013622;28;20273;-73
2022/06/10 00:40:00;;;;;;;4.40;3.20;;;;;;;;;;4993760;28;20290;-72
2022/06/10 00:42:26;;;;;;;5.77;3.33;;;;;;;;;;4994633;28;20218;-72
2022/06/10 00:44:54;;;;;;;4.87;2.90;;;;;;;;;;5001140;28;20179;-72
2022/06/10 00:47:24;;;;;;;4.20;3.10;;;;;;;;;;4999485;28;20178;-73
2022/06/10 00:49:54;;;;;;;6.03;3.40;;;;;;;;;;5000336;28;20199;-72
2022/06/10 00:52:24;;;;;;;4.30;3.17;;;;;;;;;;5000096;28;20187;-73
2022/06/10 00:54:52;;;;;;;4.17;3.03;;;;;;;;;;4996406;28;20192;-72
2022/06/10 00:57:19;;;;;;;6.40;3.30;;;;;;;;;;4995835;28;20291;-73
2022/06/10 00:59:53;;;;;;;4.27;3.23;;;;;;;;;;4993703;28;20192;-72
2022/06/10 01:02:21;;;;;;;3.93;3.13;;;;;;;;;;5000184;28;20203;-73
2022/06/10 01:04:47;;;;;;;4.77;3.00;;;;;;;;;;5005484;28;20188;-74
2022/06/10 01:07:15;;;;;;;6.23;3.37;;;;;;;;;;4995253;28;20180;-73
2022/06/10 01:09:42;;;;;;;4.83;3.40;;;;;;;;;;4994362;28;20186;-72
2022/06/10 01:12:08;;;;;;;3.43;3.13;;;;;;;;;;4997321;28;20175;-75
2022/06/10 01:14:34;;;;;;;5.07;2.97;;;;;;;;;;4996372;28;20195;-74
2022/06/10 01:17:03;;;;;;;6.20;3.50;;;;;;;;;;4995033;28;20270;-74
2022/06/10 01:19:32;;;;;;;3.73;3.13;;;;;;;;;;4993423;28;20266;-73
2022/06/10 01:21:59;;;;;;;4.70;3.13;;;;;;;;;;4991236;28;20196;-74
2022/06/10 01:24:43;;;;;;;4.30;3.27;;;;;;;;;;4999949;28;20180;-72
2022/06/10 01:27:48;;;;;;;3.53;2.90;;;;;;;;;;4987076;28;20187;-73
2022/06/10 01:30:20;;;;;;;3.97;2.80;;;;;;;;;;4988799;28;20720;-72
2022/06/10 01:33:06;;;;;;;5.27;3.17;;;;;;;;;;4986839;28;20192;-74
2022/06/10 01:35:38;;;;;;;5.93;3.20;;;;;;;;;;4990531;28;20183;-73
2022/06/10 01:38:08;;;;;;;4.23;3.20;;;;;;;;;;4989478;28;20175;-74
2022/06/10 01:40:36;;;;;;;5.63;3.10;;;;;;;;;;4994026;28;20685;-73
2022/06/10 01:43:07;;;;;;;5.25;3.20;;;;;;;;;;4988098;28;20435;-72
2022/06/10 01:45:37;;;;;;;3.72;3.00;;;;;;;;;;5003249;28;20436;-74
2022/06/10 01:48:03;;;;;;;5.80;3.40;;;;;;;;;;4991362;28;20180;-72
2022/06/10 01:50:49;;;;;;;3.20;2.90;;;;;;;;;;5007210;28;20199;-73
2022/06/10 01:53:30;;;;;;;5.10;3.43;;;;;;;;;;4985373;28;20653;-73
2022/06/10 01:56:18;;;;;;;6.73;3.80;;;;;;;;;;4997918;28;20194;-72
2022/06/10 01:58:49;;;;;;;6.40;3.70;;;;;;;;;;4971655;28;20284;-73
2022/06/10 02:01:18;;;;;;;5.47;3.63;;;;;;;;;;5000592;28;20582;-72
2022/06/10 02:03:44;;;;;;;6.67;3.23;;;;;;;;;;4990807;28;20208;-74
2022/06/10 02:06:13;;;;;;;4.93;3.60;;;;;;;;;;4991173;28;20175;-74
2022/06/10 02:08:47;;;;;;;5.23;3.70;;;;;;;;;;4995581;28;20176;-72
2022/06/10 02:11:15;;;;;;;5.47;3.60;;;;;;;;;;5002414;28;20681;-72
2022/06/10 02:13:43;;;;;;;4.97;3.90;;;;;;;;;;4978113;28;20242;-72
2022/06/10 02:16:12;;;;;;;6.93;3.30;;;;;;;;;;4991323;28;20184;-72
2022/06/10 02:18:46;;;;;;;4.90;3.60;;;;;;;;;;4993726;28;20191;-74
2022/06/10 02:21:21;;;;;;;5.80;3.60;;;;;;;;;;4996600;28;20210;-72
2022/06/10 02:23:51;;;;;;;7.13;3.53;;;;;;;;;;4993847;28;20203;-72
2022/06/10 02:26:17;;;;;;;4.10;3.37;;;;;;;;;;5005328;28;20652;-72
2022/06/10 02:28:48;;;;;;;5.20;3.83;;;;;;;;;;4994795;28;20681;-75
2022/06/10 02:31:17;;;;;;;5.27;3.90;;;;;;;;;;4992960;28;20214;-72
2022/06/10 02:33:44;;;;;;;6.33;3.63;;;;;;;;;;4996388;28;20180;-73
2022/06/10 02:36:17;;;;;;;7.20;3.50;;;;;;;;;;4993673;28;20200;-72
2022/06/10 02:38:49;;;;;;;5.53;4.07;;;;;;;;;;5007247;28;20535;-73
2022/06/10 02:41:34;;;;;;;6.37;4.10;;;;;;;;;;4993519;28;20203;-74
2022/06/10 02:44:07;;;;;;;6.17;3.90;;;;;;;;;;4993092;28;20213;-73
2022/06/10 02:46:37;;;;;;;5.90;3.77;;;;;;;;;;5000154;28;20180;-74
2022/06/10 02:49:08;;;;;;;6.03;3.60;;;;;;;;;;4991764;28;20674;-74
2022/06/10 02:51:34;;;;;;;5.23;3.53;;;;;;;;;;4995028;28;20245;-73
2022/06/10 02:54:01;;;;;;;5.97;3.93;;;;;;;;;;4994690;28;20186;-75
2022/06/10 02:56:28;;;;;;;6.13;3.90;;;;;;;;;;4990049;28;20208;-73
2022/06/10 03:01:44;;;;;;;4.87;3.40;;;;;;;;;;4993949;28;20230;-73
2022/06/10 03:04:16;;;;;;;4.23;3.40;;;;;;;;;;4995512;28;20203;-75
2022/06/10 03:06:54;;;;;;;3.40;3.07;;;;;;;;;;4993425;28;20647;-74
2022/06/10 03:09:27;;;;;;;6.10;3.60;;;;;;;;;;4989877;28;20186;-73
2022/06/10 03:12:16;;;;;;;5.93;3.77;;;;;;;;;;4993326;28;20192;-73
2022/06/10 03:14:52;;;;;;;7.07;3.70;;;;;;;;;;4992041;28;20184;-73
2022/06/10 03:17:19;;;;;;;8.00;4.23;;;;;;;;;;4989741;28;20190;-75
2022/06/10 03:19:45;;;;;;;8.40;4.13;;;;;;;;;;4993965;28;20549;-73
2022/06/10 03:22:17;;;;;;;5.77;4.20;;;;;;;;;;5005578;28;20207;-73
2022/06/10 03:24:44;;;;;;;4.80;3.90;;;;;;;;;;5013374;28;20205;-74
2022/06/10 03:27:13;;;;;;;8.43;4.57;;;;;;;;;;4990536;28;20188;-73
2022/06/10 03:29:51;;;;;;;6.73;4.07;;;;;;;;;;4991926;28;20650;-75
2022/06/10 03:32:21;;;;;;;5.23;3.93;;;;;;;;;;4998061;28;20253;-73
2022/06/10 03:34:50;;;;;;;7.10;3.90;;;;;;;;;;5002427;28;20237;-73
2022/06/10 03:37:18;;;;;;;6.03;3.57;;;;;;;;;;5006873;28;20631;-73
2022/06/10 03:39:50;;;;;;;7.03;3.83;;;;;;;;;;5000977;28;20188;-72
2022/06/10 03:42:17;;;;;;;5.33;3.80;;;;;;;;;;4992900;28;20208;-72
2022/06/10 03:44:45;;;;;;;6.30;3.80;;;;;;;;;;5004833;28;20176;-73
2022/06/10 03:47:16;;;;;;;6.33;3.93;;;;;;;;;;4987718;28;20187;-72
2022/06/10 03:50:06;;;;;;;6.03;3.33;;;;;;;;;;5009152;28;20187;-72
2022/06/10 03:52:33;;;;;;;7.30;4.23;;;;;;;;;;4997173;28;20200;-74
2022/06/10 03:54:59;;;;;;;5.63;3.60;;;;;;;;;;5002600;28;20270;-73
2022/06/10 03:57:25;;;;;;;4.20;3.50;;;;;;;;;;5000276;28;20203;-72
2022/06/10 03:59:51;;;;;;;5.73;3.90;;;;;;;;;;4996078;28;20203;-73
2022/06/10 04:02:18;;;;;;;4.30;3.57;;;;;;;;;;4991252;28;20610;-73
2022/06/10 04:04:45;;;;;;;7.77;4.23;;;;;;;;;;4993544;28;20192;-75
2022/06/10 04:07:13;;;;;;;6.40;3.90;;;;;;;;;;4990182;28;20176;-72
2022/06/10 04:09:40;;;;;;;6.07;3.97;;;;;;;;;;4988174;28;20429;-74
2022/06/10 04:12:06;;;;;;;5.70;4.00;;;;;;;;;;4996539;28;20259;-72
2022/06/10 04:14:32;;;;;;;7.43;3.93;;;;;;;;;;4989273;28;20670;-74
2022/06/10 04:17:00;;;;;;;6.50;4.10;;;;;;;;;;4995148;28;20214;-72
2022/06/10 04:19:27;;;;;;;5.77;3.87;;;;;;;;;;4993089;28;20226;-73
2022/06/10 04:21:53;;;;;;;6.47;4.03;;;;;;;;;;4998045;28;20278;-72
2022/06/10 04:24:19;;;;;;;5.73;4.00;;;;;;;;;;5002394;28;20184;-72
2022/06/10 04:26:46;;;;;;;4.87;4.00;;;;;;;;;;5002580;28;20205;-73
2022/06/10 04:29:13;;;;;;;6.60;4.10;;;;;;;;;;5006524;28;20182;-72
2022/06/10 04:31:39;;;;;;;7.87;4.13;;;;;;;;;;4996050;28;20196;-72
2022/06/10 04:34:05;;;;;;;4.40;3.70;;;;;;;;;;4996883;28;20227;-73
2022/06/10 04:36:32;;;;;;;5.87;3.90;;;;;;;;;;4994531;28;20188;-73
2022/06/10 04:38:58;;;;;;;5.83;3.87;;;;;;;;;;4996399;28;21811;-72
2022/06/10 04:41:24;;;;;;;6.20;3.70;;;;;;;;;;5000372;28;20216;-76
2022/06/10 04:43:50;;;;;;;5.30;3.97;;;;;;;;;;5004656;28;20207;-73
2022/06/10 04:46:27;;;;;;;6.03;3.77;;;;;;;;;;5002396;28;20179;-78
2022/06/10 04:48:54;;;;;;;4.87;3.80;;;;;;;;;;4990235;28;20653;-76
2022/06/10 04:51:20;;;;;;;7.97;4.00;;;;;;;;;;4995539;28;20214;-72
2022/06/10 04:53:46;;;;;;;6.57;4.00;;;;;;;;;;4990668;28;20191;-74
2022/06/10 04:56:13;;;;;;;6.97;5.50;;;;;;;;;;5013162;28;20677;-73
2022/06/10 04:58:39;;;;;;;6.83;4.83;;;;;;;;;;4991156;28;20180;-76
2022/06/10 05:01:06;;;;;;;4.67;4.20;;;;;;;;;;5017558;28;20199;-75
2022/06/10 05:03:32;;;;;;;4.63;4.00;;;;;;;;;;5001608;28;20214;-75
2022/06/10 05:05:59;;;;;;;8.43;4.20;;;;;;;;;;4998613;28;20191;-76
2022/06/10 05:08:25;;;;;;;6.40;4.30;;;;;;;;;;4994388;28;20190;-75
2022/06/10 05:10:51;;;;;;;4.50;3.73;;;;;;;;;;4991500;28;20208;-76
2022/06/10 05:13:20;;;;;;;4.30;3.90;;;;;;;;;;5006881;28;20176;-77
2022/06/10 05:15:46;;;;;;;4.47;4.07;;;;;;;;;;5005888;28;20246;-75
2022/06/10 05:18:14;;;;;;;6.37;4.23;;;;;;;;;;5015670;28;20194;-76
2022/06/10 05:20:41;;;;;;;4.77;4.00;;;;;;;;;;4996900;28;20219;-74
2022/06/10 05:23:08;;;;;;;7.73;3.90;;;;;;;;;;4990476;28;20294;-75
2022/06/10 05:25:35;;;;;;;4.40;3.47;;;;;;;;;;4991113;28;20191;-74
2022/06/10 05:28:02;;;;;;;4.50;3.70;;;;;;;;;;4997477;28;20209;-74
2022/06/10 05:30:30;;;;;;;5.20;3.90;;;;;;;;;;4992605;28;20219;-74
2022/06/10 05:32:57;;;;;;;6.47;4.10;;;;;;;;;;4997715;28;20209;-74
2022/06/10 05:35:23;;;;;;;5.43;4.13;;;;;;;;;;4994099;28;20260;-75
2022/06/10 05:37:50;;;;;;;5.33;3.93;;;;;;;;;;4998828;28;20183;-74
2022/06/10 05:40:18;;;;;;;5.43;3.90;;;;;;;;;;4992525;28;20216;-75
2022/06/10 05:42:44;;;;;;;7.50;4.13;;;;;;;;;;5001068;28;20208;-75
2022/06/10 05:45:14;;;;;;;4.77;3.80;;;;;;;;;;4996691;28;20199;-74
2022/06/10 05:47:40;;;;;;;6.60;4.20;;;;;;;;;;4994047;28;20187;-75
2022/06/10 05:50:08;;;;;;;8.00;4.67;;;;;;;;;;5006368;28;20199;-74
2022/06/10 05:52:34;;;;;;;5.97;3.97;;;;;;;;;;5002297;28;20221;-74
2022/06/10 05:55:03;;;;;;;8.00;4.27;;;;;;;;;;4986775;28;20193;-74
2022/06/10 05:57:31;;;;;;;5.43;3.90;;;;;;;;;;5021272;28;20586;-74
2022/06/10 05:59:57;;;;;;;6.20;4.67;;;;;;;;;;5002803;28;20207;-75
2022/06/10 06:02:23;;;;;;;8.50;4.50;;;;;;;;;;5001256;28;20554;-75
2022/06/10 06:04:50;;;;;;;6.97;4.30;;;;;;;;;;5004059;28;20667;-74
2022/06/10 06:07:22;;;;;;;6.90;4.40;;;;;;;;;;5004633;28;20176;-75
2022/06/10 06:09:48;;;;;;;7.77;4.57;;;;;;;;;;5004222;28;20184;-75
2022/06/10 06:12:15;;;;;;;7.27;4.33;;;;;;;;;;5004312;28;20179;-75
2022/06/10 06:14:41;;;;;;;7.60;4.63;;;;;;;;;;4999534;28;20184;-75
2022/06/10 06:17:07;;;;;;;8.30;4.30;;;;;;;;;;4998822;28;20184;-74
2022/06/10 06:19:34;;;;;;;6.20;4.30;;;;;;;;;;4998400;28;20198;-75
2022/06/10 06:22:00;;;;;;;8.23;4.33;;;;;;;;;;4996707;28;20290;-74
2022/06/10 06:24:27;;;;;;;7.73;4.77;;;;;;;;;;4995699;28;20560;-76
2022/06/10 06:26:53;;;;;;;7.73;5.07;;;;;;;;;;4995525;28;20215;-75
2022/06/10 06:29:20;;;;;;;9.73;4.97;;;;;;;;;;5003492;28;20191;-74
2022/06/10 06:31:50;;;;;;;7.10;4.80;;;;;;;;;;5000679;28;20215;-75
2022/06/10 06:34:16;;;;;;;6.27;4.70;;;;;;;;;;4998538;28;20191;-74
2022/06/10 06:36:45;;;;;;;6.63;4.73;;;;;;;;;;4998645;28;20180;-74
2022/06/10 06:39:15;;;;;;;12.13;5.57;;;;;;;;;;5020744;28;20181;-76
2022/06/10 06:41:41;;;;;;;7.03;4.80;;;;;;;;;;4998065;28;20712;-75
2022/06/10 06:44:08;;;;;;;10.13;4.50;;;;;;;;;;4992886;28;20216;-74
2022/06/10 06:46:35;;;;;;;7.77;4.67;;;;;;;;;;4999746;28;20179;-75
2022/06/10 06:49:02;;;;;;;7.60;4.43;;;;;;;;;;5001118;28;20217;-74
2022/06/10 06:51:28;;;;;;;7.03;4.40;;;;;;;;;;5005952;28;20192;-76
2022/06/10 06:53:55;;;;;;;7.30;4.60;;;;;;;;;;5007582;28;20196;-75
2022/06/10 06:56:21;;;;;;;8.27;4.93;;;;;;;;;;5007975;28;20198;-75
2022/06/10 06:58:47;;;;;;;6.53;4.47;;;;;;;;;;5004902;28;20679;-75
2022/06/10 07:01:13;;;;;;;5.87;4.60;;;;;;;;;;5011735;28;20265;-75
2022/06/10 07:03:39;;;;;;;7.17;4.77;;;;;;;;;;4994137;28;20246;-75
2022/06/10 07:06:06;;;;;;;9.40;4.67;;;;;;;;;;4998920;28;20175;-75
2022/06/10 07:08:32;;;;;;;6.97;4.50;;;;;;;;;;5006958;28;20180;-75
2022/06/10 07:10:59;;;;;;;8.20;5.20;;;;;;;;;;4993891;28;20538;-76
2022/06/10 07:13:25;;;;;;;7.10;4.80;;;;;;;;;;5005526;28;20318;-75
2022/06/10 07:15:53;;;;;;;7.40;4.57;;;;;;;;;;5006332;28;20179;-75
2022/06/10 07:18:20;;;;;;;8.30;5.07;;;;;;;;;;5003358;28;20180;-75
2022/06/10 07:20:46;;;;;;;7.17;4.60;;;;;;;;;;5008891;28;20719;-74
2022/06/10 07:23:12;;;;;;;7.87;4.73;;;;;;;;;;5000006;28;20609;-75
2022/06/10 07:25:38;;;;;;;6.13;4.67;;;;;;;;;;5001984;28;20194;-75
2022/06/10 07:28:05;;;;;;;8.60;5.23;;;;;;;;;;4990833;28;20196;-75
2022/06/10 07:30:32;;;;;;;7.20;5.07;;;;;;;;;;4993582;28;20206;-76
2022/06/10 07:32:59;;;;;;;6.87;5.70;;;;;;;;;;4994878;28;20187;-75
2022/06/10 07:35:26;;;;;;;8.03;5.40;;;;;;;;;;4996134;28;20270;-76
2022/06/10 07:37:52;;;;;;;8.27;5.77;;;;;;;;;;5000865;28;20188;-75
2022/06/10 07:43:05;;;;;;;7.93;5.37;;;;;;;;;;4991260;28;20207;-74
2022/06/10 07:45:32;;;;;;;8.27;4.70;;;;;;;;;;4989917;28;20191;-74
2022/06/10 07:47:58;;;;;;;9.23;5.07;;;;;;;;;;4989983;28;20188;-74
2022/06/10 07:50:25;;;;;;;6.47;4.40;;;;;;;;;;4994934;28;20223;-75
2022/06/10 07:52:51;;;;;;;8.23;4.50;;;;;;;;;;4992858;28;20192;-74
2022/06/10 07:55:19;;;;;;;5.60;4.50;;;;;;;;;;5001351;28;20299;-74
2022/06/10 07:57:46;;;;;;;6.17;4.40;;;;;;;;;;4995666;28;20259;-74
2022/06/10 08:00:13;;;;;;;6.33;4.33;;;;;;;;;;4993781;28;20223;-74
2022/06/10 08:02:39;;;;;;;6.67;4.53;;;;;;;;;;4988016;28;20216;-74
2022/06/10 08:05:07;;;;;;;6.37;4.40;;;;;;;;;;5002174;28;20218;-74
2022/06/10 08:07:33;;;;;;;7.90;4.63;;;;;;;;;;4992554;28;21982;-74
2022/06/10 08:09:59;;;;;;;6.87;4.17;;;;;;;;;;5001052;28;20880;-74
2022/06/10 08:12:26;;;;;;;8.07;4.23;;;;;;;;;;4998381;28;20183;-74
2022/06/10 08:14:52;;;;;;;4.93;3.87;;;;;;;;;;4986476;28;20206;-74
2022/06/10 08:17:19;;;;;;;6.63;3.70;;;;;;;;;;4997447;28;20203;-75
2022/06/10 08:19:45;;;;;;;5.30;3.50;;;;;;;;;;4996255;28;20267;-74
2022/06/10 08:25:11;;;;;;;4.90;4.40;;;;;;;;;;4999639;28;20187;-74
2022/06/10 08:27:37;;;;;;;6.80;4.70;;;;;;;;;;5003657;28;20657;-74
2022/06/10 08:30:05;;;;;;;8.90;5.37;;;;;;;;;;5003542;28;20191;-74
2022/06/10 08:32:31;;;;;;;8.83;4.57;;;;;;;;;;4999425;28;20183;-75
2022/06/10 08:34:57;;;;;;;7.40;4.77;;;;;;;;;;4996272;28;20226;-75
2022/06/10 08:37:24;;;;;;;8.73;4.77;;;;;;;;;;5001316;28;20233;-78
2022/06/10 08:39:50;;;;;;;6.10;3.87;;;;;;;;;;4997399;28;20184;-75
2022/06/10 08:42:37;;;;;;;8.43;4.60;;;;;;;;;;5002033;28;20237;-75
2022/06/10 08:45:12;;;;;;;5.93;4.63;;;;;;;;;;5003110;28;20179;-74
2022/06/10 08:47:59;;;;;;;6.87;4.73;;;;;;;;;;4999702;28;20196;-75
2022/06/10 08:50:34;;;;;;;7.10;3.93;;;;;;;;;;5017627;28;20238;-74
2022/06/10 08:53:18;;;;;;;7.10;4.13;;;;;;;;;;5000212;28;20195;-75
2022/06/10 08:56:00;;;;;;;6.07;4.60;;;;;;;;;;5001426;28;20203;-74
2022/06/10 08:58:32;;;;;;;8.37;4.30;;;;;;;;;;4995863;28;20192;-74
2022/06/10 09:01:01;;;;;;;6.07;4.00;;;;;;;;;;5006628;28;20262;-75
2022/06/10 09:03:33;;;;;;;7.00;4.13;;;;;;;;;;4994449;28;20239;-74
2022/06/10 09:06:03;;;;;;;6.53;3.43;;;;;;;;;;4992458;28;20183;-74
2022/06/10 09:08:32;;;;;;;4.97;3.23;;;;;;;;;;5005874;28;20267;-75
2022/06/10 09:11:06;;;;;;;4.73;3.03;;;;;;;;;;4995423;28;20204;-75
2022/06/10 09:13:33;;;;;;;6.73;3.00;;;;;;;;;;5000857;28;20186;-73
2022/06/10 09:16:05;;;;;;;6.40;3.20;;;;;;;;;;4995384;28;20195;-78
2022/06/10 09:18:47;;;;;;;6.43;3.50;;;;;;;;;;5000554;28;20202;-75
2022/06/10 09:21:17;;;;;;;8.50;3.73;;;;;;;;;;4993708;28;20206;-74
2022/06/10 09:23:44;;;;;;;7.70;3.60;;;;;;;;;;4999016;28;20250;-74
2022/06/10 09:26:16;;;;;;;4.77;2.90;;;;;;;;;;5016665;28;20190;-74
2022/06/10 09:28:42;;;;;;;9.30;3.60;;;;;;;;;;5003421;28;20254;-74
2022/06/10 09:31:15;;;;;;;6.80;2.97;;;;;;;;;;5000615;28;20194;-79
2022/06/10 09:33:45;;;;;;;6.50;3.00;;;;;;;;;;5008137;28;20184;-77
2022/06/10 09:36:28;;;;;;;5.77;2.80;;;;;;;;;;5011160;28;20187;-82
2022/06/10 09:38:57;;;;;;;6.40;2.83;;;;;;;;;;5004445;28;20196;-81
2022/06/10 09:41:44;;;;;;;5.53;2.60;;;;;;;;;;5010275;28;20219;-84
2022/06/10 09:44:42;;;;;;;4.53;2.30;;;;;;;;;;5027060;28;20242;-83
2022/06/10 09:47:28;;;;;;;5.63;2.60;;;;;;;;;;4980717;28;20245;-79
2022/06/10 09:50:13;;;;;;;5.47;2.60;;;;;;;;;;5005380;28;20235;-77
2022/06/10 09:52:49;;;;;;;6.37;2.77;;;;;;;;;;5006902;28;20190;-78
2022/06/10 09:55:39;;;;;;;7.43;2.33;;;;;;;;;;5004032;28;20180;-78
2022/06/10 09:58:16;;;;;;;5.87;3.20;;;;;;;;;;5005825;28;20236;-78
2022/06/10 10:00:53;;;;;;;6.33;2.80;;;;;;;;;;5001286;28;20239;-78
2022/06/10 10:03:41;;;;;;;7.30;2.53;;;;;;;;;;4995327;28;20211;-77
2022/06/10 10:06:07;;;;;;;4.07;2.23;;;;;;;;;;5013009;28;20211;-79
2022/06/10 10:08:47;;;;;;;3.87;2.27;;;;;;;;;;5023660;28;20266;-81
2022/06/10 10:11:13;;;;;;;3.53;2.03;;;;;;;;;;5000695;28;20591;-80
2022/06/10 10:13:58;;;;;;;4.23;2.30;;;;;;;;;;5002715;28;20233;-80
2022/06/10 10:16:24;;;;;;;4.23;1.97;;;;;;;;;;5018117;28;20200;-80
2022/06/10 10:19:09;;;;;;;5.93;2.47;;;;;;;;;;5000750;28;20247;-80
2022/06/10 10:21:35;;;;;;;3.53;2.20;;;;;;;;;;4998644;28;20212;-80
2022/06/10 10:24:01;;;;;;;6.30;2.47;;;;;;;;;;5015723;28;20582;-80
2022/06/10 10:26:33;;;;;;;6.00;2.30;;;;;;;;;;5002098;28;20184;-80
2022/06/10 10:29:01;;;;;;;4.03;2.27;;;;;;;;;;5017107;28;20194;-79
2022/06/10 10:31:29;;;;;;;6.93;2.60;;;;;;;;;;5001026;28;20213;-80
2022/06/10 10:33:56;;;;;;;4.17;2.07;;;;;;;;;;5016581;28;20203;-80
2022/06/10 10:36:25;;;;;;;3.80;2.20;;;;;;;;;;5012722;28;20191;-79
2022/06/10 10:38:53;;;;;;;3.97;2.10;;;;;;;;;;5011699;28;20223;-82
2022/06/10 10:41:34;;;;;;;5.40;2.13;;;;;;;;;;4998959;28;20199;-80
2022/06/10 10:44:03;;;;;;;3.70;2.00;;;;;;;;;;5002407;28;20219;-80
2022/06/10 10:46:31;;;;;;;4.73;2.00;;;;;;;;;;5011447;28;20245;-82
2022/06/10 10:48:59;;;;;;;4.10;1.93;;;;;;;;;;4999974;28;20686;-83
2022/06/10 10:51:39;;;;;;;4.77;2.00;;;;;;;;;;4999340;28;20215;-81
2022/06/10 10:54:17;;;;;;;5.13;1.87;;;;;;;;;;5013996;28;20191;-78
2022/06/10 10:56:47;;;;;;;4.50;2.07;;;;;;;;;;4964874;28;1058013;-78
2022/06/10 10:59:36;;;;;;;3.57;1.80;;;;;;;;;;5020696;28;20203;-79
2022/06/10 11:02:23;;;;;;;3.97;1.80;;;;;;;;;;4991233;28;20200;-78
2022/06/10 11:04:49;;;;;;;5.83;1.93;;;;;;;;;;5009302;28;20195;-78
2022/06/10 11:07:18;;;;;;;4.27;1.87;;;;;;;;;;5013920;28;20267;-78
2022/06/10 11:10:05;;;;;;;3.10;1.60;;;;;;;;;;5011521;28;20620;-79
2022/06/10 11:12:33;;;;;;;3.93;1.80;;;;;;;;;;4996895;28;20183;-79
2022/06/10 11:15:03;;;;;;;4.10;1.60;;;;;;;;;;4998322;28;20234;-78
2022/06/10 11:17:30;;;;;;;5.03;1.60;;;;;;;;;;5009730;28;20702;-78
2022/06/10 11:19:57;;;;;;;5.77;1.70;;;;;;;;;;5004266;28;20255;-78
2022/06/10 11:22:31;;;;;;;3.40;1.80;;;;;;;;;;5010055;28;20275;-78
2022/06/10 11:25:03;;;;;;;4.90;1.60;;;;;;;;;;4995629;28;20187;-79
2022/06/10 11:27:35;;;;;;;3.17;1.60;;;;;;;;;;4993328;28;20189;-78
2022/06/10 11:30:04;;;;;;;2.17;1.40;;;;;;;;;;4995134;28;20204;-79
2022/06/10 11:32:34;;;;;;;4.23;1.50;;;;;;;;;;5007045;28;20657;-79
2022/06/10 11:35:04;;;;;;;2.30;1.20;;;;;;;;;;5002004;28;20183;-79
2022/06/10 11:37:38;;;;;;;4.33;1.37;;;;;;;;;;5014949;28;20190;-79
2022/06/10 11:40:14;;;;;;;4.20;1.47;;;;;;;;;;5028503;28;20219;-79
2022/06/10 11:43:00;;;;;;;2.70;1.60;;;;;;;;;;5016782;28;20207;-78
2022/06/10 11:45:38;;;;;;;4.07;1.57;;;;;;;;;;4997991;28;20202;-78
2022/06/10 11:48:05;;;;;;;4.27;1.80;;;;;;;;;;4999327;28;20190;-79
2022/06/10 11:50:36;;;;;;;3.37;1.67;;;;;;;;;;5003195;28;20204;-78
2022/06/10 11:53:26;;;;;;;2.80;1.50;;;;;;;;;;4998618;28;20660;-78
2022/06/10 11:59:42;;;;;;;2.70;1.60;;;;;;;;;;4991095;28;20233;-79
2022/06/10 12:01:27;;;;;;;2.33;1.30;;;;;;;;;;5009711;28;20250;-79
2022/06/10 12:03:56;;;;;;;2.83;1.60;;;;;;;;;;4992829;28;20211;-79
2022/06/10 12:06:35;;;;;;;2.50;1.30;;;;;;;;;;5025831;28;20651;-79
2022/06/10 12:09:04;;;;;;;3.07;1.40;;;;;;;;;;4997213;28;20180;-79
2022/06/10 12:11:31;;;;;;;2.63;1.40;;;;;;;;;;4991787;28;20245;-80
2022/06/10 12:14:12;;;;;;;2.67;1.60;;;;;;;;;;5008178;28;20231;-79
2022/06/10 12:16:39;;;;;;;2.57;1.50;;;;;;;;;;5005414;28;20207;-79
2022/06/10 12:19:07;;;;;;;3.67;1.50;;;;;;;;;;5013174;28;20195;-80
2022/06/10 12:21:34;;;;;;;4.10;1.40;;;;;;;;;;5015413;28;20199;-80
2022/06/10 12:24:00;;;;;;;3.30;1.60;;;;;;;;;;4998147;28;20227;-79
2022/06/10 12:26:47;;;;;;;2.57;1.80;;;;;;;;;;5001011;28;20266;-80
2022/06/10 12:29:13;;;;;;;3.30;1.60;;;;;;;;;;5003927;28;20264;-80
2022/06/10 12:31:58;;;;;;;3.47;1.80;;;;;;;;;;5004003;28;20576;-80
2022/06/10 12:34:38;;;;;;;4.00;1.60;;;;;;;;;;5003290;28;20194;-80
2022/06/10 12:37:07;;;;;;;3.23;1.50;;;;;;;;;;5002954;28;20198;-79
2022/06/10 12:39:53;;;;;;;3.43;1.57;;;;;;;;;;5008925;28;20202;-80
2022/06/10 12:42:23;;;;;;;4.37;1.30;;;;;;;;;;5004853;28;20199;-78
2022/06/10 12:44:51;;;;;;;2.87;1.40;;;;;;;;;;5011718;28;20235;-79
2022/06/10 12:47:22;;;;;;;4.47;1.33;;;;;;;;;;4987638;28;20184;-79
2022/06/10 12:49:55;;;;;;;5.07;1.70;;;;;;;;;;4992942;28;20244;-79
2022/06/10 12:52:27;;;;;;;3.63;1.60;;;;;;;;;;5014276;28;20192;-78
2022/06/10 12:55:03;;;;;;;3.00;1.50;;;;;;;;;;4996443;28;20190;-79
2022/06/10 12:57:40;;;;;;;3.33;1.43;;;;;;;;;;5000641;28;20203;-79
2022/06/10 13:00:29;;;;;;;2.33;1.40;;;;;;;;;;4989228;28;20289;-79
2022/06/10 13:02:56;;;;;;;2.80;1.50;;;;;;;;;;4991441;28;20713;-79
2022/06/10 13:05:49;;;;;;;3.07;1.50;;;;;;;;;;4996894;28;20179;-79
2022/06/10 13:08:34;;;;;;;6.90;1.67;;;;;;;;;;4996011;28;21572;-79
2022/06/10 13:11:01;;;;;;;2.67;1.33;;;;;;;;;;5000146;28;20199;-79
2022/06/10 13:13:28;;;;;;;2.37;1.30;;;;;;;;;;5003178;28;20211;-79
2022/06/10 13:15:56;;;;;;;2.50;1.30;;;;;;;;;;4999284;28;20207;-79
2022/06/10 13:18:33;;;;;;;2.77;1.47;;;;;;;;;;5009557;28;20188;-79
2022/06/10 13:21:10;;;;;;;2.83;1.40;;;;;;;;;;5002323;28;20229;-80
2022/06/10 13:23:48;;;;;;;3.37;1.37;;;;;;;;;;5000337;28;20210;-79
2022/06/10 13:26:17;;;;;;;3.00;1.30;;;;;;;;;;4996323;28;20188;-80
2022/06/10 13:28:45;;;;;;;3.83;1.47;;;;;;;;;;4999199;28;20845;-79
2022/06/10 13:31:24;;;;;;;2.43;1.20;;;;;;;;;;4997160;28;20217;-79
2022/06/10 13:34:01;;;;;;;3.17;1.40;;;;;;;;;;4999245;28;20194;-78
2022/06/10 13:36:30;;;;;;;1.80;1.20;;;;;;;;;;5013205;28;20193;-84
2022/06/10 13:38:58;;;;;;;2.90;1.23;;;;;;;;;;4980523;28;20198;-82
2022/06/10 13:44:18;;;;;;;1.60;1.10;;;;;;;;;;5005542;28;20211;-82
2022/06/10 13:46:46;;;;;;;1.70;1.23;;;;;;;;;;5001888;28;20259;-82
2022/06/10 13:49:16;;;;;;;1.83;1.13;;;;;;;;;;4999786;28;20660;-81
2022/06/10 13:51:45;;;;;;;2.33;1.20;;;;;;;;;;4998416;28;20209;-81
2022/06/10 13:54:22;;;;;;;2.58;1.13;;;;;;;;;;5020140;28;20194;-81
2022/06/10 13:56:49;;;;;;;2.50;1.30;;;;;;;;;;5004728;28;20256;-81
2022/06/10 13:59:25;;;;;;;3.00;1.20;;;;;;;;;;5004339;28;20193;-81
2022/06/10 14:01:53;;;;;;;2.38;1.33;;;;;;;;;;5001279;28;20242;-81
2022/06/10 14:04:22;;;;;;;4.28;1.20;;;;;;;;;;5006769;28;20338;-81
2022/06/10 14:07:09;;;;;;;2.33;1.33;;;;;;;;;;5007202;28;20182;-81
2022/06/10 14:09:38;;;;;;;1.98;1.08;;;;;;;;;;5004706;28;20191;-80
2022/06/10 14:12:10;;;;;;;4.95;1.48;;;;;;;;;;5019432;28;20180;-81
2022/06/10 14:14:38;;;;;;;6.10;1.45;;;;;;;;;;5001630;28;20188;-81
2022/06/10 14:17:09;;;;;;;3.50;1.52;;;;;;;;;;4999222;28;20184;-81
2022/06/10 14:19:39;;;;;;;2.83;1.25;;;;;;;;;;4994130;28;20664;-82
2022/06/10 14:22:10;;;;;;;3.55;1.30;;;;;;;;;;5013729;28;20193;-81
2022/06/10 14:24:36;;;;;;;2.25;1.45;;;;;;;;;;4995416;28;20621;-82
2022/06/10 14:27:11;;;;;;;1.88;1.30;;;;;;;;;;5016076;28;20192;-82
2022/06/10 14:29:40;;;;;;;3.08;1.30;;;;;;;;;;5009967;28;20190;-82
2022/06/10 14:32:28;;;;;;;2.63;1.15;;;;;;;;;;5014252;28;20201;-81
2022/06/10 14:35:01;;;;;;;3.80;1.40;;;;;;;;;;5013269;28;20282;-81
2022/06/10 14:37:33;;;;;;;6.07;1.50;;;;;;;;;;5013105;28;20183;-82
2022/06/10 14:40:12;;;;;;;2.65;1.42;;;;;;;;;;5011129;28;20206;-81
2022/06/10 14:42:39;;;;;;;3.00;1.30;;;;;;;;;;5010270;28;20223;-82
2022/06/10 14:45:24;;;;;;;2.72;1.35;;;;;;;;;;5012808;28;20185;-81
2022/06/10 14:48:20;;;;;;;2.47;1.20;;;;;;;;;;5010419;28;20213;-82
2022/06/10 14:51:05;;;;;;;4.30;1.38;;;;;;;;;;4987358;28;20224;-82
2022/06/10 14:53:31;;;;;;;2.22;1.33;;;;;;;;;;5011107;28;20332;-82
2022/06/10 14:55:58;;;;;;;2.67;1.20;;;;;;;;;;4990917;28;20233;-82
2022/06/10 14:58:24;;;;;;;3.67;1.60;;;;;;;;;;5008215;28;20184;-82
2022/06/10 15:00:52;;;;;;;2.03;1.40;;;;;;;;;;5006602;28;20691;-82
2022/06/10 15:03:22;;;;;;;4.43;1.30;;;;;;;;;;5001414;28;20202;-82
2022/06/10 15:08:41;;;;;;;3.38;1.20;;;;;;;;;;5009924;28;20190;-82
2022/06/10 15:11:10;;;;;;;3.15;1.30;;;;;;;;;;5001483;28;20285;-82
2022/06/10 15:13:37;;;;;;;2.47;1.25;;;;;;;;;;5005952;28;20181;-82
2022/06/10 15:16:04;;;;;;;2.50;1.02;;;;;;;;;;5004352;28;20678;-82
2022/06/10 15:18:31;;;;;;;1.83;1.27;;;;;;;;;;5011056;28;20273;-82
2022/06/10 15:20:59;;;;;;;2.25;1.30;;;;;;;;;;4998826;28;20211;-82